Time;durP1;ratioP1;P1;durP2;ratioP2;P2;SDS_P1;SDS_P2;PMS_P1;PMS_P2;Temp;Humidity;BMP_temperature;BMP_pressure;BME280_temperature;BME280_humidity;BME280_pressure;Samples;Min_cycle;Max_cycle;Signal;HPM_P1;HPM_P2
2023/08/06 00:05:02;;;;;;;1.48;0.13;;;11.50;99.90;;;;;;25588592;23;20012;-54
2023/08/06 00:15:05;;;;;;;1.05;0.20;;;11.20;99.90;;;;;;25562051;23;20108;-54
2023/08/06 00:25:08;;;;;;;0.40;0.10;;;11.20;99.90;;;;;;25588105;23;20005;-53
2023/08/06 00:35:09;;;;;;;0.30;0.10;;;11.40;99.90;;;;;;25562610;23;20005;-52
2023/08/06 00:45:11;;;;;;;0.10;0.10;;;11.30;99.90;;;;;;25595143;23;20001;-48
2023/08/06 00:55:13;;;;;;;0.10;0.10;;;11.30;99.90;;;;;;25216367;23;20171;-50
2023/08/06 01:05:15;;;;;;;0.43;0.10;;;11.40;99.90;;;;;;25216210;23;20014;-49
2023/08/06 01:15:31;;;;;;;0.10;0.10;;;11.30;99.90;;;;;;25215701;23;20086;-49
2023/08/06 01:25:38;;;;;;;1.95;0.10;;;11.50;99.90;;;;;;25530137;23;20441;-51
2023/08/06 01:35:41;;;;;;;0.10;0.10;;;11.70;99.90;;;;;;25624631;23;20012;-50
2023/08/06 01:45:45;;;;;;;1.33;0.20;;;11.70;99.90;;;;;;25592127;23;20002;-47
2023/08/06 01:55:50;;;;;;;0.82;0.15;;;11.60;99.90;;;;;;25592321;23;20009;-46
2023/08/06 02:05:52;;;;;;;0.32;0.20;;;11.40;99.90;;;;;;25565365;23;20012;-49
2023/08/06 02:15:53;;;;;;;1.10;0.10;;;11.60;99.90;;;;;;25591368;23;20436;-54
2023/08/06 02:26:03;;;;;;;0.30;0.10;;;11.70;99.90;;;;;;25564987;23;20009;-52
2023/08/06 02:36:05;;;;;;;0.20;0.10;;;11.70;99.90;;;;;;25620453;23;20016;-45
2023/08/06 02:46:07;;;;;;;0.30;0.10;;;11.70;99.90;;;;;;25564179;23;20380;-45
2023/08/06 02:56:09;;;;;;;2.53;0.13;;;11.90;99.90;;;;;;25589925;23;20036;-47
2023/08/06 03:06:34;;;;;;;0.30;0.20;;;11.60;99.90;;;;;;25574517;23;20005;-52
2023/08/06 03:16:37;;;;;;;0.30;0.20;;;11.30;99.90;;;;;;25562907;23;20017;-53
2023/08/06 03:26:39;;;;;;;1.35;0.30;;;10.90;99.90;;;;;;25589332;23;20068;-52
2023/08/06 03:36:41;;;;;;;1.15;0.20;;;10.70;99.90;;;;;;25562380;23;20032;-54
2023/08/06 03:46:43;;;;;;;0.47;0.20;;;10.50;99.90;;;;;;25588784;23;20337;-49
2023/08/06 03:56:45;;;;;;;0.95;0.30;;;10.30;99.90;;;;;;25588607;23;20013;-49
2023/08/06 04:06:47;;;;;;;0.22;0.20;;;10.20;99.90;;;;;;25562198;23;20049;-45
2023/08/06 04:16:49;;;;;;;1.55;0.20;;;10.00;99.90;;;;;;25595080;23;20012;-52
2023/08/06 04:26:51;;;;;;;0.60;0.28;;;9.90;99.90;;;;;;25596070;23;20009;-51
2023/08/06 04:36:52;;;;;;;0.47;0.30;;;10.10;99.90;;;;;;25595070;23;20013;-46
2023/08/06 04:46:54;;;;;;;0.63;0.20;;;10.20;99.90;;;;;;25568785;23;20060;-54
2023/08/06 04:56:56;;;;;;;0.77;0.22;;;10.30;99.90;;;;;;25596202;23;20013;-46
2023/08/06 05:06:58;;;;;;;0.35;0.20;;;11.30;99.90;;;;;;25594191;23;20001;-54
2023/08/06 05:17:02;;;;;;;0.17;0.17;;;11.80;99.90;;;;;;25593929;23;20039;-49
2023/08/06 05:27:04;;;;;;;0.50;0.13;;;12.20;99.90;;;;;;25592954;23;20001;-46
2023/08/06 05:37:06;;;;;;;0.30;0.17;;;12.40;99.90;;;;;;25566204;23;20420;-51
2023/08/06 05:47:07;;;;;;;0.10;0.10;;;12.50;99.90;;;;;;25592893;23;20333;-51
2023/08/06 05:57:09;;;;;;;0.80;0.20;;;12.70;99.90;;;;;;25592462;23;20427;-46
2023/08/06 06:07:11;;;;;;;0.10;0.10;;;12.70;99.90;;;;;;25591966;23;20031;-45
2023/08/06 06:17:13;;;;;;;0.40;0.20;;;12.60;99.90;;;;;;25591948;23;20012;-45
2023/08/06 06:27:14;;;;;;;0.40;0.20;;;12.60;99.90;;;;;;25591190;23;20364;-49
2023/08/06 06:37:16;;;;;;;0.43;0.20;;;13.00;99.90;;;;;;25590040;23;20016;-49
2023/08/06 06:47:18;;;;;;;0.30;0.20;;;16.30;99.90;;;;;;25590375;23;20302;-54
2023/08/06 06:57:19;;;;;;;0.50;0.30;;;18.50;99.50;;;;;;25589714;23;20071;-56
2023/08/06 07:07:21;;;;;;;0.10;0.10;;;19.30;97.50;;;;;;25591151;23;20009;-56
2023/08/06 07:17:23;;;;;;;0.30;0.20;;;19.50;96.00;;;;;;25588805;23;20059;-55
2023/08/06 07:27:25;;;;;;;0.50;0.30;;;19.20;94.90;;;;;;25587978;23;20009;-55
2023/08/06 07:37:30;;;;;;;0.52;0.20;;;18.70;95.00;;;;;;25587049;23;20012;-56
2023/08/06 07:47:31;;;;;;;0.38;0.20;;;18.80;95.70;;;;;;25589445;23;20005;-55
2023/08/06 07:57:34;;;;;;;0.60;0.30;;;19.20;95.10;;;;;;25593251;23;20013;-56
2023/08/06 08:07:36;;;;;;;0.20;0.20;;;19.30;94.50;;;;;;25594012;23;20351;-55
2023/08/06 08:17:38;;;;;;;1.80;0.28;;;19.00;95.40;;;;;;25593765;23;20040;-56
2023/08/06 08:27:39;;;;;;;0.10;0.10;;;19.30;94.20;;;;;;25593994;23;20040;-55
2023/08/06 08:37:43;;;;;;;0.80;0.20;;;19.10;93.60;;;;;;25593519;23;20009;-45
2023/08/06 08:47:47;;;;;;;0.50;0.25;;;19.30;91.90;;;;;;25566686;23;20384;-55
2023/08/06 08:57:49;;;;;;;0.80;0.50;;;19.00;92.30;;;;;;25592383;23;20016;-50
2023/08/06 09:07:54;;;;;;;2.08;0.20;;;19.30;92.30;;;;;;25592387;23;20005;-55
2023/08/06 09:17:56;;;;;;;0.20;0.20;;;19.00;93.10;;;;;;25565815;23;20005;-55
2023/08/06 09:27:58;;;;;;;0.47;0.30;;;19.50;92.00;;;;;;25592278;23;20064;-56
2023/08/06 09:38:08;;;;;;;0.22;0.20;;;19.60;91.80;;;;;;25591350;23;20036;-56
2023/08/06 09:48:11;;;;;;;0.85;0.30;;;19.50;92.90;;;;;;25591395;23;20013;-56
2023/08/06 09:58:14;;;;;;;0.30;0.20;;;19.90;91.00;;;;;;25590868;23;20008;-56
2023/08/06 10:08:16;;;;;;;0.32;0.20;;;20.30;92.20;;;;;;25591659;23;20075;-56
2023/08/06 10:18:22;;;;;;;0.20;0.20;;;21.00;91.50;;;;;;25590078;23;20507;-50
2023/08/06 10:28:37;;;;;;;0.95;0.20;;;21.90;91.80;;;;;;25631065;23;20079;-57
2023/08/06 10:38:48;;;;;;;0.20;0.20;;;23.10;93.30;;;;;;25608544;23;20005;-56
2023/08/06 10:48:51;;;;;;;0.28;0.20;;;21.90;92.10;;;;;;25588388;23;20009;-57
2023/08/06 10:58:57;;;;;;;0.40;0.20;;;20.70;92.80;;;;;;25588614;23;20072;-57
2023/08/06 11:08:59;;;;;;;0.63;0.30;;;19.90;94.50;;;;;;25591703;23;20067;-57
2023/08/06 11:19:01;;;;;;;1.00;0.50;;;19.60;95.20;;;;;;25588049;23;20511;-47
2023/08/06 11:29:03;;;;;;;3.03;1.00;;;19.50;98.70;;;;;;25588203;23;20001;-57
2023/08/06 11:39:05;;;;;;;2.85;1.85;;;18.80;99.90;;;;;;25587809;23;20013;-57
2023/08/06 11:49:07;;;;;;;2.70;1.67;;;17.80;99.90;;;;;;25587750;23;20008;-57
2023/08/06 11:59:10;;;;;;;3.05;2.13;;;17.20;99.90;;;;;;25537554;23;20017;-57
2023/08/06 12:09:13;;;;;;;3.35;2.42;;;16.90;99.90;;;;;;25587463;23;20075;-58
2023/08/06 12:19:15;;;;;;;1.52;1.30;;;16.70;99.90;;;;;;25586797;23;20005;-56
2023/08/06 12:29:17;;;;;;;0.93;0.50;;;16.60;99.90;;;;;;25587166;23;20009;-57
2023/08/06 12:39:19;;;;;;;1.08;0.43;;;18.50;99.90;;;;;;25593861;23;20336;-56
2023/08/06 12:49:22;;;;;;;0.75;0.30;;;20.30;99.90;;;;;;25593535;23;20329;-53
2023/08/06 12:59:25;;;;;;;0.22;0.10;;;19.70;94.40;;;;;;25593284;23;20016;-56
2023/08/06 13:09:28;;;;;;;0.82;0.30;;;18.80;97.40;;;;;;25592383;23;20016;-56
2023/08/06 13:19:32;;;;;;;0.60;0.30;;;19.50;99.60;;;;;;25565848;23;20440;-58
2023/08/06 13:29:34;;;;;;;1.58;0.40;;;21.50;95.70;;;;;;25592717;23;20009;-58
2023/08/06 13:39:36;;;;;;;0.50;0.30;;;23.00;92.50;;;;;;25591807;23;20491;-58
2023/08/06 13:49:38;;;;;;;1.15;0.50;;;22.70;92.30;;;;;;25590105;23;20009;-57
2023/08/06 13:59:41;;;;;;;1.45;0.50;;;21.40;91.50;;;;;;25590564;23;20009;-58
2023/08/06 14:09:44;;;;;;;0.73;0.55;;;20.30;93.00;;;;;;25590214;23;20005;-57
2023/08/06 14:19:46;;;;;;;1.42;0.65;;;21.40;94.20;;;;;;25589933;23;20005;-57
2023/08/06 14:29:48;;;;;;;1.50;0.50;;;23.50;90.40;;;;;;25590188;23;20376;-57
2023/08/06 14:39:50;;;;;;;0.50;0.40;;;22.60;92.60;;;;;;25587663;23;20005;-57
2023/08/06 14:49:52;;;;;;;0.57;0.50;;;21.20;91.40;;;;;;25588738;23;20020;-57
2023/08/06 14:59:54;;;;;;;1.15;0.40;;;19.60;93.50;;;;;;25535824;23;20009;-57
2023/08/06 15:09:57;;;;;;;0.68;0.40;;;18.60;94.60;;;;;;25587108;23;20005;-56
2023/08/06 15:19:59;;;;;;;0.55;0.38;;;18.90;93.70;;;;;;25586806;23;20015;-56
2023/08/06 15:30:02;;;;;;;0.80;0.40;;;20.10;91.10;;;;;;25588024;23;20076;-57
2023/08/06 15:40:06;;;;;;;0.40;0.30;;;20.50;91.60;;;;;;25586655;23;20016;-56
2023/08/06 15:50:09;;;;;;;0.35;0.30;;;20.30;91.00;;;;;;25587048;23;20024;-56
2023/08/06 16:00:12;;;;;;;2.58;0.40;;;20.70;90.90;;;;;;25584938;23;20076;-56
2023/08/06 16:10:14;;;;;;;0.52;0.40;;;20.70;90.50;;;;;;25591061;23;20005;-56
2023/08/06 16:20:16;;;;;;;0.90;0.50;;;20.60;91.00;;;;;;25593740;23;20001;-56
2023/08/06 16:30:18;;;;;;;0.50;0.35;;;20.20;91.30;;;;;;25594303;23;20033;-56
2023/08/06 16:40:20;;;;;;;0.95;0.60;;;18.60;93.70;;;;;;25594228;23;20009;-57
2023/08/06 16:50:22;;;;;;;0.95;0.43;;;16.60;97.60;;;;;;25594026;23;20005;-57
2023/08/06 17:00:24;;;;;;;2.08;0.40;;;15.40;99.90;;;;;;25594449;23;20380;-56
2023/08/06 17:10:26;;;;;;;1.60;0.57;;;14.60;99.90;;;;;;25594088;23;20001;-56
2023/08/06 17:20:28;;;;;;;1.15;0.80;;;14.00;99.90;;;;;;25567233;23;20063;-57
2023/08/06 17:30:31;;;;;;;0.60;0.40;;;13.60;99.90;;;;;;25593477;23;19997;-56
2023/08/06 17:40:33;;;;;;;3.47;2.35;;;13.30;99.90;;;;;;25591796;23;20013;-56
2023/08/06 17:50:35;;;;;;;1.25;0.50;;;13.20;99.90;;;;;;25592386;23;20348;-56
2023/08/06 18:00:36;;;;;;;0.40;0.30;;;12.90;99.90;;;;;;25592169;23;20005;-55
2023/08/06 18:10:39;;;;;;;2.65;0.30;;;12.90;99.90;;;;;;25591819;23;20012;-55
2023/08/06 18:20:41;;;;;;;0.40;0.20;;;12.80;99.90;;;;;;25591384;23;20016;-55
2023/08/06 18:30:43;;;;;;;0.32;0.20;;;12.60;99.90;;;;;;25590416;23;20445;-54
2023/08/06 18:40:45;;;;;;;1.92;0.38;;;12.40;99.90;;;;;;25590004;23;20020;-55
2023/08/06 18:50:47;;;;;;;1.00;0.30;;;12.20;99.90;;;;;;25563880;23;20009;-54
2023/08/06 19:00:49;;;;;;;0.80;0.30;;;11.90;99.90;;;;;;25589738;23;20067;-54
2023/08/06 19:10:51;;;;;;;2.70;0.50;;;11.80;99.90;;;;;;25589469;23;20002;-54
2023/08/06 19:20:56;;;;;;;0.90;0.40;;;11.70;99.90;;;;;;25589280;23;20016;-53
2023/08/06 19:30:59;;;;;;;1.98;0.50;;;11.50;99.90;;;;;;25630124;23;20001;-55
2023/08/06 19:41:06;;;;;;;0.22;0.20;;;11.30;99.90;;;;;;25587675;23;20009;-53
2023/08/06 19:51:09;;;;;;;0.73;0.20;;;11.60;99.90;;;;;;25596977;23;20055;-54
2023/08/06 20:01:11;;;;;;;2.22;0.30;;;11.70;99.90;;;;;;25596280;23;20005;-53
2023/08/06 20:11:13;;;;;;;0.90;0.30;;;11.30;99.90;;;;;;25593522;23;20013;-54
2023/08/06 20:21:16;;;;;;;2.22;0.50;;;11.30;99.90;;;;;;25594140;23;20012;-55
2023/08/06 20:31:18;;;;;;;0.85;0.30;;;11.50;99.90;;;;;;25594086;23;20016;-51
2023/08/06 20:41:24;;;;;;;0.47;0.20;;;12.00;99.90;;;;;;25593111;23;20013;-49
2023/08/06 20:51:28;;;;;;;1.00;0.20;;;11.80;99.90;;;;;;25634059;23;20009;-54
2023/08/06 21:01:36;;;;;;;0.50;0.20;;;11.50;99.90;;;;;;25593534;23;20001;-54
2023/08/06 21:11:38;;;;;;;0.22;0.10;;;11.30;99.90;;;;;;25633556;23;20001;-54
2023/08/06 21:21:40;;;;;;;0.20;0.20;;;11.20;99.90;;;;;;25593304;23;20016;-52
2023/08/06 21:31:42;;;;;;;0.40;0.22;;;11.20;99.90;;;;;;25592919;23;20009;-54
2023/08/06 21:41:44;;;;;;;0.43;0.22;;;11.30;99.90;;;;;;25591702;23;20013;-49
2023/08/06 21:51:47;;;;;;;0.40;0.20;;;11.60;99.90;;;;;;25592195;23;20009;-54
2023/08/06 22:01:48;;;;;;;0.20;0.10;;;11.30;99.90;;;;;;25590870;23;20012;-48
2023/08/06 22:11:50;;;;;;;0.52;0.10;;;11.00;99.90;;;;;;25590378;23;20321;-54
2023/08/06 22:21:52;;;;;;;3.20;0.10;;;10.90;99.90;;;;;;25591424;23;20024;-55
2023/08/06 22:31:54;;;;;;;0.20;0.10;;;10.40;99.90;;;;;;25591080;23;20340;-54
2023/08/06 22:41:56;;;;;;;0.25;0.10;;;10.30;99.90;;;;;;25590500;23;20075;-48
2023/08/06 22:51:58;;;;;;;0.28;0.10;;;10.80;98.50;;;;;;25590534;23;20048;-53
2023/08/06 23:02:00;;;;;;;0.82;0.00;;;10.90;99.00;;;;;;25590830;23;20293;-50
2023/08/06 23:12:03;;;;;;;0.20;0.10;;;10.80;97.30;;;;;;25589553;23;20059;-47
2023/08/06 23:22:05;;;;;;;1.27;0.10;;;11.00;98.00;;;;;;25589487;23;20063;-49
2023/08/06 23:32:07;;;;;;;0.75;0.20;;;10.90;95.10;;;;;;25589007;23;20008;-54
2023/08/06 23:42:09;;;;;;;0.57;0.20;;;10.70;96.90;;;;;;25588831;23;20013;-47
2023/08/06 23:52:10;;;;;;;0.20;0.08;;;10.20;97.20;;;;;;25588936;23;20067;-54
